createdAt,value
2017-01-05T00:00:19.750Z,0
2017-01-05T00:01:19.877Z,0
2017-01-05T00:02:19.752Z,0
2017-01-05T00:03:19.801Z,0
2017-01-05T00:04:19.970Z,0
2017-01-05T00:05:19.872Z,0
2017-01-05T00:06:19.936Z,0
2017-01-05T00:07:19.952Z,0
2017-01-05T00:08:19.781Z,0
2017-01-05T00:09:19.901Z,0
2017-01-05T00:10:19.946Z,0
2017-01-05T00:11:19.864Z,0
2017-01-05T00:12:19.949Z,0
2017-01-05T00:13:19.899Z,0
2017-01-05T00:14:19.781Z,0
2017-01-05T00:15:19.976Z,0
2017-01-05T00:16:19.920Z,0
2017-01-05T00:17:20.035Z,0
2017-01-05T00:18:19.894Z,0
2017-01-05T00:19:19.918Z,0
2017-01-05T00:20:19.796Z,0
2017-01-05T00:21:19.892Z,0
2017-01-05T00:22:20.363Z,0
2017-01-05T00:23:19.922Z,0
2017-01-05T00:24:20.342Z,0
2017-01-05T00:25:19.832Z,0
2017-01-05T00:26:20.043Z,0
2017-01-05T00:27:19.888Z,0
2017-01-05T00:28:19.850Z,0
2017-01-05T00:29:20.100Z,0
2017-01-05T00:30:19.890Z,0
2017-01-05T00:31:19.979Z,0
2017-01-05T00:32:19.940Z,0
2017-01-05T00:33:20.166Z,0
2017-01-05T00:34:19.753Z,0
2017-01-05T00:35:19.986Z,0
2017-01-05T00:36:19.949Z,0
2017-01-05T00:37:19.867Z,0
2017-01-05T00:38:20.807Z,0
2017-01-05T00:39:19.884Z,0
2017-01-05T00:40:19.804Z,0
2017-01-05T00:41:20.545Z,0
2017-01-05T00:42:19.853Z,0
2017-01-05T00:43:19.828Z,0
2017-01-05T00:44:19.795Z,0
2017-01-05T00:45:19.815Z,0
2017-01-05T00:46:19.938Z,0
2017-01-05T00:47:19.934Z,0
2017-01-05T00:48:19.798Z,0
2017-01-05T00:49:20.024Z,0
2017-01-05T00:50:19.829Z,0
2017-01-05T00:51:19.975Z,0
2017-01-05T00:52:19.776Z,0
2017-01-05T00:53:19.887Z,0
2017-01-05T00:54:19.810Z,0
2017-01-05T00:55:19.935Z,0
2017-01-05T00:56:20.506Z,0
2017-01-05T00:57:20.019Z,0
2017-01-05T00:58:19.775Z,0
2017-01-05T00:59:19.926Z,0
2017-01-05T01:00:19.816Z,0
2017-01-05T01:01:19.832Z,0
2017-01-05T01:02:19.797Z,0
2017-01-05T01:03:19.959Z,0
2017-01-05T01:04:19.796Z,0
2017-01-05T01:05:19.977Z,0
2017-01-05T01:06:19.815Z,0
2017-01-05T01:07:19.798Z,0
2017-01-05T01:08:19.805Z,0
2017-01-05T01:09:21.424Z,0
2017-01-05T01:10:20.007Z,0
2017-01-05T01:11:19.915Z,0
2017-01-05T01:12:19.935Z,0
2017-01-05T01:13:19.928Z,0
2017-01-05T01:14:19.833Z,0
2017-01-05T01:15:20.538Z,0
2017-01-05T01:16:19.800Z,0
2017-01-05T01:17:19.929Z,0
2017-01-05T01:18:20.004Z,0
2017-01-05T01:19:20.684Z,0
2017-01-05T01:20:19.949Z,0
2017-01-05T01:21:19.875Z,0
2017-01-05T01:22:19.994Z,0
2017-01-05T01:23:19.863Z,0
2017-01-05T01:24:19.985Z,0
2017-01-05T01:25:19.970Z,0
2017-01-05T01:26:19.903Z,0
2017-01-05T01:27:19.980Z,0
2017-01-05T01:28:19.966Z,0
2017-01-05T01:29:19.989Z,0
2017-01-05T01:30:19.884Z,0
2017-01-05T01:31:20.053Z,0
2017-01-05T01:32:20.681Z,0
2017-01-05T01:33:19.930Z,0
2017-01-05T01:34:19.832Z,0
2017-01-05T01:35:19.853Z,0
2017-01-05T01:36:19.815Z,0
2017-01-05T01:37:20.015Z,0
2017-01-05T01:38:19.812Z,0
2017-01-05T01:39:19.909Z,0
2017-01-05T01:40:19.843Z,0
2017-01-05T01:41:20.021Z,0
2017-01-05T01:42:19.963Z,0
2017-01-05T01:43:19.981Z,0
2017-01-05T01:44:19.958Z,0
2017-01-05T01:45:19.896Z,0
2017-01-05T01:46:19.912Z,0
2017-01-05T01:47:19.902Z,0
2017-01-05T01:48:19.990Z,0
2017-01-05T01:49:19.974Z,0
2017-01-05T01:50:19.861Z,0
2017-01-05T01:51:19.870Z,0
2017-01-05T01:52:20.001Z,0
2017-01-05T01:53:19.821Z,0
2017-01-05T01:54:19.918Z,0
2017-01-05T01:55:20.064Z,0
2017-01-05T01:56:19.949Z,0
2017-01-05T01:57:19.926Z,0
2017-01-05T01:58:19.833Z,0
2017-01-05T01:59:19.888Z,0
2017-01-05T02:00:20.010Z,0
2017-01-05T02:01:19.969Z,0
2017-01-05T02:02:19.860Z,0
2017-01-05T02:03:19.935Z,0
2017-01-05T02:04:19.839Z,0
2017-01-05T02:05:19.928Z,0
2017-01-05T02:06:19.919Z,0
2017-01-05T02:07:20.131Z,0
2017-01-05T02:08:19.848Z,0
2017-01-05T02:09:19.845Z,0
2017-01-05T02:10:19.988Z,0
2017-01-05T02:11:19.873Z,0
2017-01-05T02:12:19.923Z,0
2017-01-05T02:13:19.888Z,0
2017-01-05T02:14:20.053Z,0
2017-01-05T02:15:19.878Z,0
2017-01-05T02:16:19.880Z,0
2017-01-05T02:17:19.924Z,0
2017-01-05T02:18:20.038Z,0
2017-01-05T02:19:19.985Z,0
2017-01-05T02:20:19.878Z,0
2017-01-05T02:21:19.987Z,0
2017-01-05T02:22:20.039Z,0
2017-01-05T02:23:19.954Z,0
2017-01-05T02:24:19.909Z,0
2017-01-05T02:25:19.996Z,0
2017-01-05T02:26:19.976Z,0
2017-01-05T02:27:20.029Z,0
2017-01-05T02:28:19.886Z,0
2017-01-05T02:29:19.897Z,0
2017-01-05T02:30:20.050Z,0
2017-01-05T02:31:19.852Z,0
2017-01-05T02:32:19.928Z,0
2017-01-05T02:33:19.918Z,0
2017-01-05T02:34:19.875Z,0
2017-01-05T02:35:20.226Z,0
2017-01-05T02:36:19.945Z,0
2017-01-05T02:37:19.967Z,0
2017-01-05T02:38:19.830Z,0
2017-01-05T02:39:20.532Z,0
2017-01-05T02:40:20.460Z,0
2017-01-05T02:41:19.912Z,0
2017-01-05T02:42:19.971Z,0
2017-01-05T02:43:19.918Z,0
2017-01-05T02:44:20.591Z,0
2017-01-05T02:45:19.920Z,0
2017-01-05T02:46:19.885Z,0
2017-01-05T02:47:19.919Z,0
2017-01-05T02:48:19.863Z,0
2017-01-05T02:49:19.944Z,0
2017-01-05T02:50:19.901Z,0
2017-01-05T02:51:19.936Z,0
2017-01-05T02:52:20.127Z,0
2017-01-05T02:53:19.990Z,0
2017-01-05T02:54:19.870Z,0
2017-01-05T02:55:19.891Z,0
2017-01-05T02:56:19.914Z,0
2017-01-05T02:57:20.027Z,0
2017-01-05T02:58:20.019Z,0
2017-01-05T02:59:20.010Z,0
2017-01-05T03:00:20.068Z,0
2017-01-05T03:01:20.019Z,0
2017-01-05T03:02:19.987Z,0
2017-01-05T03:03:19.941Z,0
2017-01-05T03:04:19.916Z,0
2017-01-05T03:05:19.963Z,0
2017-01-05T03:06:19.848Z,0
2017-01-05T03:07:20.094Z,0
2017-01-05T03:08:19.858Z,0
2017-01-05T03:09:20.836Z,0
2017-01-05T03:10:20.015Z,0
2017-01-05T03:11:19.996Z,0
2017-01-05T03:12:19.960Z,0
2017-01-05T03:13:20.017Z,0
2017-01-05T03:14:19.864Z,0
2017-01-05T03:15:19.945Z,0
2017-01-05T03:16:19.890Z,0
2017-01-05T03:17:20.067Z,0
2017-01-05T03:18:19.915Z,0
2017-01-05T03:19:20.030Z,0
2017-01-05T03:20:19.955Z,0
2017-01-05T03:21:19.912Z,0
2017-01-05T03:22:19.950Z,0
2017-01-05T03:23:20.663Z,0
2017-01-05T03:24:20.046Z,0
2017-01-05T03:25:19.874Z,0
2017-01-05T03:26:19.839Z,0
2017-01-05T03:27:19.974Z,0
2017-01-05T03:28:20.015Z,0
2017-01-05T03:29:20.072Z,0
2017-01-05T03:30:20.077Z,0
2017-01-05T03:31:19.981Z,0
2017-01-05T03:32:20.237Z,0
2017-01-05T03:33:20.139Z,0
2017-01-05T03:34:20.004Z,0
2017-01-05T03:35:20.709Z,0
2017-01-05T03:36:19.941Z,0
2017-01-05T03:37:19.952Z,0
2017-01-05T03:38:19.961Z,0
2017-01-05T03:39:20.203Z,0
2017-01-05T03:40:19.944Z,0
2017-01-05T03:41:19.961Z,0
2017-01-05T03:42:20.060Z,0
2017-01-05T03:43:20.120Z,0
2017-01-05T03:44:19.941Z,0
2017-01-05T03:45:20.163Z,0
2017-01-05T03:46:19.935Z,0
2017-01-05T03:47:19.994Z,0
2017-01-05T03:48:20.081Z,0
2017-01-05T03:49:20.157Z,0
2017-01-05T03:50:20.623Z,0
2017-01-05T03:51:20.001Z,0
2017-01-05T03:52:20.068Z,0
2017-01-05T03:57:37.405Z,0
2017-01-05T03:57:49.074Z,0
2017-01-05T03:58:48.973Z,0
2017-01-05T03:59:48.994Z,0
2017-01-05T04:00:48.973Z,0
2017-01-05T04:01:50.155Z,0
2017-01-05T04:02:49.090Z,0
2017-01-05T04:03:48.961Z,0
2017-01-05T04:04:48.964Z,0
2017-01-05T04:05:49.047Z,0
2017-01-05T04:06:48.989Z,0
2017-01-05T04:07:49.049Z,0
2017-01-05T04:08:48.973Z,0
2017-01-05T04:09:49.870Z,0
2017-01-05T04:10:48.933Z,0
2017-01-05T04:11:49.073Z,0
2017-01-05T04:12:49.069Z,0
2017-01-05T04:13:49.053Z,0
2017-01-05T04:14:49.082Z,0
2017-01-05T04:15:49.143Z,0
2017-01-05T04:16:49.083Z,0
2017-01-05T04:17:49.722Z,0
2017-01-05T04:18:49.079Z,0
2017-01-05T04:19:48.973Z,0
2017-01-05T04:20:49.093Z,0
2017-01-05T04:21:50.281Z,0
2017-01-05T04:22:48.970Z,0
2017-01-05T04:23:49.065Z,0
2017-01-05T04:24:49.052Z,0
2017-01-05T04:25:49.092Z,0
2017-01-05T04:26:49.011Z,0
2017-01-05T04:27:49.122Z,0
2017-01-05T04:28:49.192Z,0
2017-01-05T04:29:49.071Z,0
2017-01-05T04:30:49.580Z,0
2017-01-05T04:31:49.183Z,0
2017-01-05T04:32:49.094Z,0
2017-01-05T04:33:49.095Z,0
2017-01-05T04:34:50.332Z,0
2017-01-05T04:35:49.032Z,0
2017-01-05T04:36:48.963Z,0
2017-01-05T04:37:49.227Z,0
2017-01-05T04:38:48.990Z,0
2017-01-05T04:39:48.973Z,0
2017-01-05T04:40:49.024Z,0
2017-01-05T04:41:49.076Z,0
2017-01-05T04:42:49.101Z,0
2017-01-05T04:43:49.120Z,0
2017-01-05T04:44:49.021Z,0
2017-01-05T04:45:49.301Z,0
2017-01-05T04:46:49.091Z,0
2017-01-05T04:47:49.393Z,0
2017-01-05T04:48:49.180Z,0
2017-01-05T04:49:49.141Z,0
2017-01-05T04:50:49.110Z,0
2017-01-05T04:51:49.052Z,0
2017-01-05T04:52:49.110Z,0
2017-01-05T04:53:48.970Z,0
2017-01-05T04:54:49.028Z,0
2017-01-05T04:55:49.086Z,0
2017-01-05T04:56:49.056Z,0
2017-01-05T04:57:49.317Z,0
2017-01-05T04:58:49.112Z,0
2017-01-05T04:59:49.077Z,0
2017-01-05T05:00:49.093Z,0
2017-01-05T05:01:49.136Z,0
2017-01-05T05:02:49.122Z,0
2017-01-05T05:03:49.240Z,0
2017-01-05T05:04:49.196Z,0
2017-01-05T05:05:49.105Z,0
2017-01-05T05:06:49.088Z,0
2017-01-05T05:07:49.179Z,0
2017-01-05T05:08:49.123Z,0
2017-01-05T05:09:49.078Z,0
2017-01-05T05:10:49.184Z,0
2017-01-05T05:11:49.202Z,0
2017-01-05T05:12:49.109Z,0
2017-01-05T05:13:49.099Z,0
2017-01-05T05:14:49.148Z,0
2017-01-05T05:15:49.189Z,0
2017-01-05T05:16:49.702Z,0
2017-01-05T05:17:49.158Z,0
2017-01-05T05:18:49.039Z,0
2017-01-05T05:19:49.172Z,0
2017-01-05T05:20:49.119Z,0
2017-01-05T05:21:49.071Z,0
2017-01-05T05:22:49.076Z,0
2017-01-05T05:23:49.049Z,0
2017-01-05T05:24:49.278Z,0
2017-01-05T05:25:49.119Z,0
2017-01-05T05:26:49.174Z,0
2017-01-05T05:27:49.088Z,0
2017-01-05T05:28:49.067Z,0
2017-01-05T05:29:49.200Z,0
2017-01-05T05:30:49.008Z,0
2017-01-05T05:31:49.227Z,0
2017-01-05T05:32:49.118Z,0
2017-01-05T05:33:49.111Z,0
2017-01-05T05:34:49.207Z,0
2017-01-05T05:35:49.062Z,0
2017-01-05T05:36:49.227Z,0
2017-01-05T05:37:49.107Z,0
2017-01-05T05:38:49.905Z,0
2017-01-05T05:39:49.705Z,0
2017-01-05T05:40:49.202Z,0
2017-01-05T05:41:49.207Z,0
2017-01-05T05:42:49.203Z,0
2017-01-05T05:43:49.265Z,0
2017-01-05T05:44:49.218Z,0
2017-01-05T05:45:49.112Z,0
2017-01-05T05:46:49.143Z,0
2017-01-05T05:47:49.135Z,0
2017-01-05T05:48:49.102Z,0
2017-01-05T05:49:49.137Z,0
2017-01-05T05:50:49.196Z,0
2017-01-05T05:51:49.226Z,0
2017-01-05T05:52:50.576Z,0
2017-01-05T05:53:49.253Z,0
2017-01-05T05:54:49.177Z,0
2017-01-05T05:55:49.286Z,0
2017-01-05T05:56:49.286Z,0
2017-01-05T05:57:49.221Z,0
2017-01-05T05:58:49.128Z,0
2017-01-05T05:59:49.183Z,0
2017-01-05T06:00:49.107Z,0
2017-01-05T06:01:50.123Z,0
2017-01-05T06:02:49.409Z,0
2017-01-05T06:03:49.142Z,0
2017-01-05T06:04:49.131Z,0
2017-01-05T06:05:49.135Z,0
2017-01-05T06:06:49.212Z,0
2017-01-05T06:07:49.165Z,0
2017-01-05T06:08:49.173Z,0
2017-01-05T06:09:49.194Z,0
2017-01-05T06:10:49.211Z,0
2017-01-05T06:11:49.053Z,0
2017-01-05T06:12:49.224Z,0
2017-01-05T06:13:49.172Z,0
2017-01-05T06:14:49.143Z,0
2017-01-05T06:15:49.124Z,0
2017-01-05T06:16:49.147Z,0
2017-01-05T06:17:49.161Z,0
2017-01-05T06:18:49.148Z,0
2017-01-05T06:19:49.249Z,0
2017-01-05T06:20:49.113Z,0
2017-01-05T06:21:49.199Z,0
2017-01-05T06:22:49.172Z,0
2017-01-05T06:23:49.094Z,0
2017-01-05T06:24:49.060Z,0
2017-01-05T06:25:49.200Z,0
2017-01-05T06:26:49.183Z,0
2017-01-05T06:27:49.117Z,0
2017-01-05T06:28:49.301Z,0
2017-01-05T06:29:49.181Z,0
2017-01-05T06:30:49.261Z,0
2017-01-05T06:31:49.270Z,0
2017-01-05T06:32:49.183Z,0
2017-01-05T06:33:52.250Z,0
2017-01-05T06:34:49.254Z,0
2017-01-05T06:35:49.349Z,0
2017-01-05T06:36:49.267Z,0
2017-01-05T06:37:49.118Z,0
2017-01-05T06:38:49.141Z,0
2017-01-05T06:39:50.047Z,0
2017-01-05T06:40:50.189Z,0
2017-01-05T06:41:49.195Z,0
2017-01-05T06:42:49.308Z,0
2017-01-05T06:43:49.543Z,0
2017-01-05T06:44:49.853Z,0
2017-01-05T06:45:49.162Z,0
2017-01-05T06:46:49.167Z,0
2017-01-05T06:47:49.310Z,0
2017-01-05T06:48:49.866Z,0
2017-01-05T06:49:49.279Z,0
2017-01-05T06:50:49.197Z,0
2017-01-05T06:51:49.239Z,0
2017-01-05T06:52:49.307Z,0
2017-01-05T06:53:49.728Z,0
2017-01-05T06:54:49.229Z,0
2017-01-05T06:55:49.245Z,0
2017-01-05T06:56:49.208Z,0
2017-01-05T06:57:49.237Z,0
2017-01-05T06:58:49.310Z,0
2017-01-05T06:59:49.409Z,0
2017-01-05T07:00:49.267Z,0
2017-01-05T07:01:49.220Z,0
2017-01-05T07:02:49.207Z,0
2017-01-05T07:03:50.057Z,0
2017-01-05T07:04:49.258Z,0
2017-01-05T07:05:49.257Z,0
2017-01-05T07:06:49.175Z,0
2017-01-05T07:07:49.305Z,0
2017-01-05T07:08:49.409Z,0
2017-01-05T07:09:49.822Z,0
2017-01-05T07:10:49.336Z,0
2017-01-05T07:11:49.284Z,0
2017-01-05T07:12:49.842Z,0
2017-01-05T07:13:49.541Z,0
2017-01-05T07:14:49.453Z,0
2017-01-05T07:15:49.175Z,0
2017-01-05T07:16:49.795Z,0
2017-01-05T07:17:49.809Z,0
2017-01-05T07:18:49.253Z,0
2017-01-05T07:19:49.348Z,0
2017-01-05T07:20:49.221Z,0
2017-01-05T07:21:49.229Z,0
2017-01-05T07:22:49.297Z,0
2017-01-05T07:23:49.337Z,0
2017-01-05T07:24:59.333Z,0
2017-01-05T07:25:49.288Z,0
2017-01-05T07:26:49.277Z,5
2017-01-05T07:27:49.270Z,5
2017-01-05T07:28:49.319Z,5
2017-01-05T07:29:49.269Z,5
2017-01-05T07:30:49.564Z,5
2017-01-05T07:31:49.416Z,5
2017-01-05T07:32:49.246Z,5
2017-01-05T07:33:49.295Z,5
2017-01-05T07:34:49.366Z,10
2017-01-05T07:35:49.400Z,10
2017-01-05T07:36:49.183Z,10
2017-01-05T07:37:49.372Z,10
2017-01-05T07:38:49.283Z,10
2017-01-05T07:39:49.366Z,10
2017-01-05T07:40:49.188Z,15
2017-01-05T07:41:49.213Z,15
2017-01-05T07:42:49.378Z,15
2017-01-05T07:43:49.372Z,15
2017-01-05T07:44:49.895Z,20
2017-01-05T07:45:49.353Z,20
2017-01-05T07:46:49.298Z,20
2017-01-05T07:47:49.308Z,20
2017-01-05T07:48:49.346Z,20
2017-01-05T07:49:49.313Z,25
2017-01-05T07:50:49.278Z,25
2017-01-05T07:51:49.291Z,25
2017-01-05T07:52:49.245Z,30
2017-01-05T07:53:49.331Z,30
2017-01-05T07:54:49.356Z,30
2017-01-05T07:55:50.254Z,30
2017-01-05T07:56:49.470Z,35
2017-01-05T07:57:49.352Z,35
2017-01-05T07:58:49.378Z,35
2017-01-05T07:59:49.373Z,35
2017-01-05T08:00:49.309Z,40
2017-01-05T08:01:49.368Z,40
2017-01-05T08:02:49.252Z,40
2017-01-05T08:03:52.427Z,45
2017-01-05T08:04:49.356Z,45
2017-01-05T08:05:49.890Z,45
2017-01-05T08:06:49.540Z,50
2017-01-05T08:07:49.436Z,50
2017-01-05T08:08:49.392Z,50
2017-01-05T08:09:49.394Z,50
2017-01-05T08:10:49.334Z,55
2017-01-05T08:11:49.363Z,55
2017-01-05T08:12:49.452Z,55
2017-01-05T08:13:49.632Z,60
2017-01-05T08:14:49.384Z,60
2017-01-05T08:15:49.531Z,60
2017-01-05T08:16:49.214Z,60
2017-01-05T08:17:49.900Z,65
2017-01-05T08:18:50.961Z,65
2017-01-05T08:19:49.396Z,65
2017-01-05T08:20:49.376Z,70
2017-01-05T08:21:49.375Z,70
2017-01-05T08:22:49.390Z,70
2017-01-05T08:23:49.500Z,75
2017-01-05T08:24:49.394Z,75
2017-01-05T08:25:49.633Z,75
2017-01-05T08:26:49.379Z,80
2017-01-05T08:27:49.458Z,80
2017-01-05T08:28:49.343Z,85
2017-01-05T08:29:49.443Z,85
2017-01-05T08:30:49.293Z,85
2017-01-05T08:31:49.324Z,90
2017-01-05T08:32:49.469Z,90
2017-01-05T08:33:49.564Z,90
2017-01-05T08:34:49.254Z,90
2017-01-05T08:35:49.444Z,95
2017-01-05T08:36:49.596Z,95
2017-01-05T08:37:49.419Z,95
2017-01-05T08:38:49.354Z,100
2017-01-05T08:39:49.391Z,100
2017-01-05T08:40:49.311Z,105
2017-01-05T08:41:49.450Z,105
2017-01-05T08:42:49.423Z,105
2017-01-05T08:43:50.077Z,105
2017-01-05T08:44:49.487Z,110
2017-01-05T08:45:49.355Z,110
2017-01-05T08:46:49.348Z,110
2017-01-05T08:47:49.407Z,115
2017-01-05T08:48:49.473Z,115
2017-01-05T08:49:49.521Z,115
2017-01-05T08:50:49.363Z,120
2017-01-05T08:51:49.533Z,120
2017-01-05T08:52:49.447Z,120
2017-01-05T08:53:49.488Z,125
2017-01-05T08:54:49.305Z,125
2017-01-05T08:55:50.504Z,130
2017-01-05T08:56:49.402Z,130
2017-01-05T08:57:49.537Z,130
2017-01-05T08:58:51.394Z,135
2017-01-05T08:59:49.366Z,135
2017-01-05T09:00:49.409Z,135
2017-01-05T09:01:49.526Z,140
2017-01-05T09:02:49.451Z,140
2017-01-05T09:03:49.466Z,140
2017-01-05T09:04:49.430Z,140
2017-01-05T09:05:49.456Z,140
2017-01-05T09:06:49.533Z,145
2017-01-05T09:07:49.572Z,150
2017-01-05T09:08:49.402Z,150
2017-01-05T09:09:49.422Z,150
2017-01-05T09:10:49.413Z,155
2017-01-05T09:11:49.374Z,155
2017-01-05T09:12:49.423Z,155
2017-01-05T09:13:49.427Z,160
2017-01-05T09:14:49.381Z,160
2017-01-05T09:15:49.470Z,160
2017-01-05T09:16:49.362Z,160
2017-01-05T09:17:49.447Z,165
2017-01-05T09:18:49.606Z,165
2017-01-05T09:19:49.616Z,165
2017-01-05T09:20:49.437Z,165
2017-01-05T09:21:49.599Z,170
2017-01-05T09:22:49.433Z,170
2017-01-05T09:23:49.438Z,170
2017-01-05T09:24:49.549Z,170
2017-01-05T09:25:50.301Z,170
2017-01-05T09:26:49.567Z,170
2017-01-05T09:27:49.513Z,175
2017-01-05T09:28:49.431Z,175
2017-01-05T09:29:49.954Z,180
2017-01-05T09:30:50.925Z,180
2017-01-05T09:31:49.441Z,185
2017-01-05T09:32:49.461Z,185
2017-01-05T09:33:49.511Z,195
2017-01-05T09:34:49.581Z,190
2017-01-05T09:35:49.490Z,195
2017-01-05T09:36:49.472Z,200
2017-01-05T09:37:49.507Z,200
2017-01-05T09:38:49.674Z,195
2017-01-05T09:39:49.706Z,200
2017-01-05T09:40:49.654Z,200
2017-01-05T09:41:49.495Z,205
2017-01-05T09:42:49.726Z,205
2017-01-05T09:43:49.462Z,210
2017-01-05T09:44:49.535Z,210
2017-01-05T09:45:49.681Z,215
2017-01-05T09:46:49.530Z,215
2017-01-05T09:47:49.800Z,220
2017-01-05T09:48:49.689Z,220
2017-01-05T09:49:49.484Z,220
2017-01-05T09:50:49.479Z,225
2017-01-05T09:51:49.435Z,225
2017-01-05T09:52:49.730Z,225
2017-01-05T09:53:49.558Z,230
2017-01-05T09:54:49.672Z,225
2017-01-05T09:55:49.501Z,230
2017-01-05T09:56:49.670Z,235
2017-01-05T09:57:49.564Z,240
2017-01-05T09:58:49.491Z,235
2017-01-05T09:59:49.488Z,235
2017-01-05T10:00:49.773Z,235
2017-01-05T10:01:49.581Z,240
2017-01-05T10:02:49.446Z,245
2017-01-05T10:03:49.505Z,245
2017-01-05T10:04:49.568Z,245
2017-01-05T10:05:49.453Z,250
2017-01-05T10:06:49.774Z,250
2017-01-05T10:07:49.723Z,265
2017-01-05T10:08:49.563Z,270
2017-01-05T10:09:49.756Z,265
2017-01-05T10:10:49.669Z,265
2017-01-05T10:11:49.511Z,265
2017-01-05T10:12:49.553Z,265
2017-01-05T10:13:49.722Z,260
2017-01-05T10:14:49.579Z,260
2017-01-05T10:15:49.754Z,255
2017-01-05T10:16:49.492Z,250
2017-01-05T10:17:51.658Z,245
2017-01-05T10:18:49.891Z,245
2017-01-05T10:19:49.459Z,240
2017-01-05T10:20:49.488Z,245
2017-01-05T10:21:49.697Z,240
2017-01-05T10:22:49.568Z,245
2017-01-05T10:23:49.840Z,260
2017-01-05T10:24:49.677Z,255
2017-01-05T10:25:49.676Z,245
2017-01-05T10:26:50.478Z,260
2017-01-05T10:27:49.780Z,265
2017-01-05T10:28:49.534Z,260
2017-01-05T10:29:49.697Z,260
2017-01-05T10:30:49.612Z,250
2017-01-05T10:31:49.794Z,240
2017-01-05T10:32:49.557Z,255
2017-01-05T10:33:49.476Z,280
2017-01-05T10:34:49.517Z,270
2017-01-05T10:35:49.624Z,255
2017-01-05T10:36:50.285Z,250
2017-01-05T10:37:49.629Z,255
2017-01-05T10:38:49.788Z,265
2017-01-05T10:39:49.707Z,275
2017-01-05T10:40:49.450Z,270
2017-01-05T10:41:49.497Z,270
2017-01-05T10:42:49.632Z,265
2017-01-05T10:43:49.776Z,265
2017-01-05T10:44:49.671Z,285
2017-01-05T10:45:49.496Z,285
2017-01-05T10:46:49.826Z,285
2017-01-05T10:47:49.581Z,285
2017-01-05T10:48:49.577Z,295
2017-01-05T10:49:49.755Z,300
2017-01-05T10:50:49.755Z,340
2017-01-05T10:51:49.655Z,360
2017-01-05T10:52:49.693Z,380
2017-01-05T10:53:49.728Z,335
2017-01-05T10:54:49.678Z,285
2017-01-05T10:55:49.577Z,280
2017-01-05T10:56:49.674Z,285
2017-01-05T10:57:49.615Z,295
2017-01-05T10:58:49.657Z,345
2017-01-05T10:59:49.533Z,360
2017-01-05T11:00:49.665Z,345
2017-01-05T11:01:49.586Z,320
2017-01-05T11:02:49.666Z,350
2017-01-05T11:03:52.624Z,335
2017-01-05T11:04:49.793Z,310
2017-01-05T11:05:49.682Z,270
2017-01-05T11:06:49.697Z,245
2017-01-05T11:07:49.642Z,275
2017-01-05T11:08:49.483Z,295
2017-01-05T11:09:50.232Z,295
2017-01-05T11:10:49.754Z,275
2017-01-05T11:11:49.669Z,275
2017-01-05T11:12:49.763Z,280
2017-01-05T11:13:49.634Z,295
2017-01-05T11:14:49.595Z,290
2017-01-05T11:15:49.722Z,280
2017-01-05T11:16:49.444Z,275
2017-01-05T11:17:50.274Z,270
2017-01-05T11:18:49.555Z,280
2017-01-05T11:19:49.537Z,285
2017-01-05T11:20:49.628Z,290
2017-01-05T11:21:49.592Z,280
2017-01-05T11:22:49.548Z,285
2017-01-05T11:23:49.593Z,295
2017-01-05T11:24:49.613Z,365
2017-01-05T11:25:49.662Z,350
2017-01-05T11:26:49.647Z,355
2017-01-05T11:27:49.623Z,355
2017-01-05T11:28:50.265Z,320
2017-01-05T11:29:49.541Z,320
2017-01-05T11:30:49.673Z,330
2017-01-05T11:31:49.617Z,355
2017-01-05T11:32:49.841Z,390
2017-01-05T11:33:49.815Z,360
2017-01-05T11:34:49.751Z,350
2017-01-05T11:35:49.847Z,365
2017-01-05T11:36:49.796Z,320
2017-01-05T11:37:49.889Z,340
2017-01-05T11:38:49.540Z,395
2017-01-05T11:39:49.847Z,300
2017-01-05T11:40:49.721Z,350
2017-01-05T11:41:49.746Z,345
2017-01-05T11:42:49.757Z,345
2017-01-05T11:43:49.782Z,345
2017-01-05T11:44:49.555Z,335
2017-01-05T11:45:49.641Z,325
2017-01-05T11:46:49.710Z,325
2017-01-05T11:47:49.698Z,325
2017-01-05T11:48:49.637Z,330
2017-01-05T11:49:50.214Z,325
2017-01-05T11:50:49.633Z,320
2017-01-05T11:51:49.901Z,330
2017-01-05T11:52:49.751Z,320
2017-01-05T11:53:50.331Z,320
2017-01-05T11:54:49.573Z,315
2017-01-05T11:55:49.783Z,305
2017-01-05T11:56:49.683Z,305
2017-01-05T11:57:49.840Z,305
2017-01-05T11:58:49.702Z,300
2017-01-05T11:59:49.794Z,300
2017-01-05T12:00:49.610Z,295
2017-01-05T12:01:49.591Z,295
2017-01-05T12:02:49.892Z,305
2017-01-05T12:03:49.873Z,310
2017-01-05T12:04:49.719Z,310
2017-01-05T12:05:50.021Z,310
2017-01-05T12:06:49.679Z,310
2017-01-05T12:07:50.380Z,305
2017-01-05T12:08:49.822Z,310
2017-01-05T12:09:49.940Z,305
2017-01-05T12:10:49.718Z,315
2017-01-05T12:11:50.007Z,315
2017-01-05T12:12:49.799Z,315
2017-01-05T12:13:49.740Z,310
2017-01-05T12:14:49.891Z,310
2017-01-05T12:15:49.678Z,310
2017-01-05T12:16:49.767Z,310
2017-01-05T12:17:49.789Z,310
2017-01-05T12:19:24.749Z,315
2017-01-05T12:19:49.899Z,310
2017-01-05T12:20:50.380Z,310
2017-01-05T12:21:49.809Z,315
2017-01-05T12:22:49.829Z,315
2017-01-05T12:23:49.967Z,310
2017-01-05T12:24:49.733Z,270
2017-01-05T12:25:49.985Z,310
2017-01-05T12:26:49.952Z,305
2017-01-05T12:27:49.983Z,300
2017-01-05T12:28:49.772Z,300
2017-01-05T12:29:49.986Z,305
2017-01-05T12:30:49.999Z,310
2017-01-05T12:31:49.824Z,310
2017-01-05T12:32:49.993Z,295
2017-01-05T12:33:49.915Z,295
2017-01-05T12:34:49.896Z,305
2017-01-05T12:35:50.509Z,305
2017-01-05T12:36:49.672Z,310
2017-01-05T12:37:49.865Z,310
2017-01-05T12:38:49.779Z,315
2017-01-05T12:39:49.674Z,310
2017-01-05T12:40:49.717Z,315
2017-01-05T12:41:50.276Z,310
2017-01-05T12:42:49.763Z,305
2017-01-05T12:43:51.882Z,300
2017-01-05T12:44:49.718Z,295
2017-01-05T12:45:49.992Z,295
2017-01-05T12:46:49.977Z,295
2017-01-05T12:47:49.920Z,295
2017-01-05T12:48:49.915Z,295
2017-01-05T12:49:49.924Z,290
2017-01-05T12:50:49.901Z,290
2017-01-05T12:51:49.846Z,290
2017-01-05T12:52:49.918Z,295
2017-01-05T12:53:50.003Z,300
2017-01-05T12:54:49.866Z,310
2017-01-05T12:55:49.853Z,320
2017-01-05T12:56:50.421Z,330
2017-01-05T12:57:49.965Z,330
2017-01-05T12:58:49.778Z,330
2017-01-05T12:59:49.871Z,325
2017-01-05T13:00:49.812Z,330
2017-01-05T13:01:51.515Z,340
2017-01-05T13:02:49.938Z,340
2017-01-05T13:03:49.919Z,345
2017-01-05T13:04:49.871Z,360
2017-01-05T13:05:49.925Z,360
2017-01-05T13:06:49.705Z,355
2017-01-05T13:07:49.938Z,350
2017-01-05T13:08:49.756Z,345
2017-01-05T13:09:49.850Z,340
2017-01-05T13:10:49.989Z,330
2017-01-05T13:11:49.826Z,315
2017-01-05T13:12:49.856Z,305
2017-01-05T13:13:49.872Z,295
2017-01-05T13:14:49.910Z,300
2017-01-05T13:15:50.063Z,315
2017-01-05T13:16:49.719Z,320
2017-01-05T13:17:49.916Z,310
2017-01-05T13:18:49.895Z,305
2017-01-05T13:19:49.954Z,300
2017-01-05T13:20:49.992Z,290
2017-01-05T13:21:49.903Z,280
2017-01-05T13:22:49.821Z,260
2017-01-05T13:23:49.840Z,245
2017-01-05T13:24:49.961Z,265
2017-01-05T13:25:49.849Z,270
2017-01-05T13:26:49.758Z,255
2017-01-05T13:27:49.958Z,235
2017-01-05T13:28:49.883Z,225
2017-01-05T13:29:49.922Z,220
2017-01-05T13:30:49.730Z,225
2017-01-05T13:31:49.822Z,235
2017-01-05T13:32:49.994Z,225
2017-01-05T13:33:49.729Z,235
2017-01-05T13:34:49.750Z,245
2017-01-05T13:35:49.885Z,240
2017-01-05T13:36:49.852Z,235
2017-01-05T13:37:49.866Z,235
2017-01-05T13:38:49.999Z,230
2017-01-05T13:39:49.759Z,230
2017-01-05T13:40:49.844Z,225
2017-01-05T13:41:49.907Z,220
2017-01-05T13:42:49.821Z,215
2017-01-05T13:43:49.992Z,215
2017-01-05T13:44:49.783Z,210
2017-01-05T13:45:49.826Z,210
2017-01-05T13:46:49.910Z,210
2017-01-05T13:47:51.551Z,205
2017-01-05T13:48:49.912Z,205
2017-01-05T13:49:49.827Z,205
2017-01-05T13:50:49.892Z,200
2017-01-05T13:51:49.719Z,200
2017-01-05T13:52:49.888Z,200
2017-01-05T13:53:49.726Z,200
2017-01-05T13:54:49.923Z,200
2017-01-05T13:55:50.000Z,195
2017-01-05T13:56:49.919Z,195
2017-01-05T13:57:50.077Z,195
2017-01-05T13:58:49.790Z,195
2017-01-05T13:59:49.952Z,195
2017-01-05T14:00:49.959Z,195
2017-01-05T14:01:49.930Z,190
2017-01-05T14:02:49.917Z,190
2017-01-05T14:03:50.146Z,190
2017-01-05T14:04:49.808Z,185
2017-01-05T14:05:50.063Z,185
2017-01-05T14:06:50.277Z,180
2017-01-05T14:07:49.939Z,175
2017-01-05T14:08:50.127Z,175
2017-01-05T14:09:49.984Z,170
2017-01-05T14:10:49.858Z,170
2017-01-05T14:11:49.947Z,165
2017-01-05T14:12:50.025Z,165
2017-01-05T14:13:49.836Z,160
2017-01-05T14:14:49.918Z,160
2017-01-05T14:15:49.807Z,155
2017-01-05T14:16:49.845Z,150
2017-01-05T14:17:50.167Z,150
2017-01-05T14:18:49.881Z,150
2017-01-05T14:19:49.809Z,150
2017-01-05T14:20:49.869Z,145
2017-01-05T14:21:49.840Z,145
2017-01-05T14:22:50.060Z,140